createdAt,value
2022-09-07T00:01:00.344Z,61.78
2022-09-07T00:06:10.499Z,66.28
2022-09-07T00:11:15.814Z,67.12
2022-09-07T00:16:28.484Z,63.23
2022-09-07T00:21:31.572Z,60.81
2022-09-07T00:26:33.245Z,55.08
2022-09-07T00:31:35.569Z,54.05
2022-09-07T00:36:37.452Z,55.99
2022-09-07T00:41:39.588Z,57.28
2022-09-07T00:46:41.496Z,58.32
2022-09-07T00:51:57.987Z,59.32
2022-09-07T00:57:00.405Z,59.95
2022-09-07T01:02:02.596Z,60.81
2022-09-07T01:07:08.019Z,61.34
2022-09-07T01:12:09.733Z,67.15
2022-09-07T01:17:39.478Z,67.73
2022-09-07T01:22:53.967Z,61.58
2022-09-07T01:28:22.877Z,55.62
2022-09-07T01:33:35.908Z,53.83
2022-09-07T01:38:56.783Z,55.85
2022-09-07T01:44:22.941Z,57.45
2022-09-07T01:49:40.796Z,59.13
2022-09-07T01:54:50.343Z,60.25
2022-09-07T01:59:57.381Z,60.96
2022-09-07T02:05:10.279Z,66.17
2022-09-07T02:10:27.579Z,68.19
2022-09-07T02:15:47.144Z,63.55
2022-09-07T02:20:53.385Z,60.39
2022-09-07T02:26:10.664Z,55.23
2022-09-07T02:31:12.479Z,54.22
2022-09-07T02:36:17.726Z,55.86
2022-09-07T02:41:41.938Z,58.03
2022-09-07T02:47:10.298Z,59.60
2022-09-07T02:52:55.932Z,60.95
2022-09-07T02:58:24.345Z,67.14
2022-09-07T03:03:32.202Z,67.76
2022-09-07T03:08:43.549Z,64.40
2022-09-07T03:13:45.445Z,62.46
2022-09-07T03:18:50.283Z,60.52
2022-09-07T03:23:53.310Z,55.76
2022-09-07T03:28:55.724Z,54.99
2022-09-07T03:33:57.651Z,56.59
2022-09-07T03:38:59.612Z,58.11
2022-09-07T03:44:05.277Z,60.02
2022-09-07T03:49:07.065Z,66.42
2022-09-07T03:54:08.882Z,68.89
2022-09-07T04:04:49.399Z,60.58
2022-09-07T04:21:50.549Z,64.68
2022-09-07T04:26:54.651Z,64.14
2022-09-07T04:31:56.388Z,60.20
2022-09-07T04:36:58.159Z,56.70
2022-09-07T04:42:00.082Z,55.81
2022-09-07T04:47:01.904Z,57.03
2022-09-07T05:24:15.125Z,59.45
2022-09-07T05:49:42.929Z,61.81
2022-09-07T05:55:26.221Z,61.43
2022-09-07T06:00:27.304Z,61.84
2022-09-07T06:05:29.072Z,61.43
2022-09-07T06:15:44.107Z,60.89
2022-09-07T06:20:46.097Z,60.58
2022-09-07T06:25:49.325Z,60.41
2022-09-07T06:30:51.110Z,59.94
2022-09-07T06:36:03.511Z,59.77
2022-09-07T06:51:50.412Z,58.47
2022-09-07T06:56:52.256Z,58.23
2022-09-07T07:01:54.070Z,57.89
2022-09-07T07:06:55.883Z,58.25
2022-09-07T07:11:57.723Z,57.56
2022-09-07T07:16:59.524Z,57.31
2022-09-07T07:22:14.304Z,56.77
2022-09-07T07:27:23.227Z,55.92
2022-09-07T07:32:24.979Z,55.85
2022-09-07T07:37:28.277Z,54.94
2022-09-07T07:42:30.263Z,54.53
2022-09-07T07:47:32.296Z,54.27
2022-09-07T07:58:01.687Z,53.35
2022-09-07T08:03:03.414Z,52.59
2022-09-07T08:08:05.381Z,51.18
2022-09-07T08:13:10.666Z,51.38
2022-09-07T08:18:32.347Z,51.20
2022-09-07T08:23:47.678Z,50.98
2022-09-07T08:28:49.434Z,51.05
2022-09-07T08:33:51.283Z,50.58
2022-09-07T08:38:53.705Z,50.17
2022-09-07T08:44:20.555Z,50.09
2022-09-07T08:49:48.656Z,50.28
2022-09-07T08:55:14.346Z,50.44
2022-09-07T09:00:36.356Z,49.98
2022-09-07T09:06:37.260Z,49.30
2022-09-07T09:12:17.544Z,48.74
2022-09-07T09:17:25.062Z,48.33
2022-09-07T09:22:28.572Z,47.47
2022-09-07T09:27:30.237Z,47.02
2022-09-07T09:32:35.875Z,46.64
2022-09-07T09:37:39.905Z,46.39
2022-09-07T09:42:41.821Z,45.93
2022-09-07T09:47:49.606Z,46.12
2022-09-07T09:52:52.833Z,45.98
2022-09-07T10:08:57.922Z,45.41
2022-09-07T10:13:59.718Z,45.42
2022-09-07T10:19:01.560Z,44.73
2022-09-07T10:24:06.234Z,44.44
2022-09-07T10:29:24.922Z,44.28
2022-09-07T10:34:52.245Z,43.96
2022-09-07T10:40:17.042Z,44.87
2022-09-07T10:45:36.875Z,44.96
2022-09-07T10:50:53.610Z,45.47
2022-09-07T10:56:04.403Z,44.55
2022-09-07T11:01:34.518Z,44.70
2022-09-07T11:06:48.278Z,44.39
2022-09-07T11:12:04.715Z,43.25
2022-09-07T11:17:14.332Z,43.91
2022-09-07T11:22:42.289Z,43.56
2022-09-07T11:28:09.359Z,43.44
2022-09-07T11:33:39.120Z,42.94
2022-09-07T11:39:11.652Z,42.57
2022-09-07T11:44:21.823Z,42.45
2022-09-07T11:49:26.060Z,42.06
2022-09-07T11:54:45.847Z,41.61
2022-09-07T12:10:58.219Z,39.73
2022-09-07T12:36:31.500Z,38.95
2022-09-07T12:41:47.869Z,39.30
2022-09-07T12:47:11.206Z,38.91
2022-09-07T12:52:39.872Z,38.04
2022-09-07T12:58:16.795Z,38.95
2022-09-07T13:09:13.611Z,39.63
2022-09-07T13:14:27.923Z,40.09
2022-09-07T13:19:50.915Z,39.21
2022-09-07T13:24:54.491Z,38.69
2022-09-07T13:30:01.674Z,37.60
2022-09-07T13:35:05.408Z,36.87
2022-09-07T13:40:10.945Z,37.02
2022-09-07T13:45:49.385Z,36.64
2022-09-07T14:21:55.890Z,35.27
2022-09-07T14:27:07.770Z,35.21
2022-09-07T14:32:14.511Z,35.35
2022-09-07T14:43:36.824Z,35.53
2022-09-07T14:48:40.276Z,35.96
2022-09-07T14:54:07.402Z,36.59
2022-09-07T14:59:40.578Z,36.54
2022-09-07T15:05:16.384Z,36.54
2022-09-07T15:10:37.009Z,36.62
2022-09-07T15:15:41.645Z,36.46
2022-09-07T15:20:45.041Z,36.55
2022-09-07T15:25:53.658Z,36.83
2022-09-07T15:36:17.630Z,36.93
2022-09-07T15:41:23.961Z,36.94
2022-09-07T15:46:27.303Z,36.98
2022-09-07T16:13:01.508Z,37.25
2022-09-07T16:18:04.625Z,37.30
2022-09-07T16:23:15.845Z,37.59
2022-09-07T16:28:18.395Z,37.67
2022-09-07T16:33:20.272Z,38.76
2022-09-07T16:43:44.121Z,41.67
2022-09-07T16:48:46.017Z,43.24
2022-09-07T16:53:53.844Z,44.75
2022-09-07T16:59:01.838Z,46.08
2022-09-07T17:04:09.809Z,47.25
2022-09-07T17:09:14.617Z,48.23
2022-09-07T17:14:16.622Z,49.28
2022-09-07T17:19:33.647Z,50.62
2022-09-07T17:24:35.568Z,51.79
2022-09-07T17:29:43.646Z,52.53
2022-09-07T17:35:00.522Z,53.09
2022-09-07T17:40:05.815Z,54.24
2022-09-07T17:45:08.359Z,55.05
2022-09-07T17:50:30.407Z,55.82
2022-09-07T17:55:52.427Z,56.58
2022-09-07T18:01:11.445Z,57.10
2022-09-07T18:06:14.892Z,57.62
2022-09-07T18:16:41.491Z,58.49
2022-09-07T18:21:43.849Z,59.49
2022-09-07T18:26:52.206Z,59.95
2022-09-07T18:31:55.147Z,60.40
2022-09-07T18:36:58.456Z,60.51
2022-09-07T18:42:01.581Z,66.34
2022-09-07T18:47:03.848Z,59.89
2022-09-07T18:57:36.498Z,57.75
2022-09-07T19:02:38.547Z,58.76
2022-09-07T19:07:40.585Z,59.94
2022-09-07T19:12:45.662Z,60.73
2022-09-07T19:17:51.785Z,66.66
2022-09-07T19:22:53.498Z,66.44
2022-09-07T19:27:55.695Z,62.92
2022-09-07T19:33:02.094Z,60.51
2022-09-07T19:38:06.085Z,55.16
2022-09-07T19:43:07.904Z,54.48
2022-09-07T19:48:09.751Z,56.60
2022-09-07T19:53:11.694Z,58.80
2022-09-07T19:58:13.742Z,59.69
2022-09-07T20:03:15.449Z,60.55
2022-09-07T20:08:17.225Z,66.44
2022-09-07T20:13:19.340Z,66.97
2022-09-07T20:18:22.386Z,63.42
2022-09-07T20:23:24.173Z,57.34
2022-09-07T20:28:26.277Z,54.68
2022-09-07T20:33:31.269Z,56.18
2022-09-07T20:38:42.761Z,57.74
2022-09-07T20:43:44.650Z,59.01
2022-09-07T20:48:46.424Z,60.35
2022-09-07T20:54:03.396Z,66.38
2022-09-07T20:59:12.500Z,67.07
2022-09-07T21:04:14.391Z,62.23
2022-09-07T21:09:16.246Z,55.61
2022-09-07T21:14:19.249Z,53.76
2022-09-07T21:19:21.127Z,55.09
2022-09-07T21:24:23.327Z,56.85
2022-09-07T21:29:45.440Z,58.50
2022-09-07T21:35:00.822Z,59.24
2022-09-07T21:40:10.736Z,60.13
2022-09-07T21:45:12.589Z,60.76
2022-09-07T21:50:14.584Z,66.73
2022-09-07T21:55:16.626Z,66.90
2022-09-07T22:00:38.487Z,62.54
2022-09-07T22:05:53.824Z,56.30
2022-09-07T22:11:03.658Z,55.31
2022-09-07T22:16:09.743Z,56.95
2022-09-07T22:21:26.939Z,58.68
2022-09-07T22:26:31.712Z,59.67
2022-09-07T22:31:35.774Z,60.86
2022-09-07T22:36:42.011Z,67.61
2022-09-07T22:41:44.824Z,67.20
2022-09-07T22:46:47.125Z,63.36
2022-09-07T22:51:49.133Z,60.41
2022-09-07T22:56:50.919Z,56.12
2022-09-07T23:01:52.667Z,55.93
2022-09-07T23:06:54.465Z,57.89
2022-09-07T23:11:56.158Z,59.89
2022-09-07T23:17:16.841Z,66.65
2022-09-07T23:22:18.614Z,67.29
2022-09-07T23:27:20.572Z,63.76
2022-09-07T23:32:22.340Z,61.34
2022-09-07T23:37:24.149Z,60.18
2022-09-07T23:42:25.873Z,57.39
2022-09-07T23:47:27.671Z,57.76
2022-09-07T23:52:29.722Z,59.86
2022-09-07T23:57:31.626Z,65.24
